Language: 


Des rapports , des résumés tant et plus, au choix de chacun....


Données statistiques de la station
Quotidien Rapport Octobre 6, 2017 Unités:  Métrique    Anglais   les deux
« Précédent Jour
Suivant Jour »
Quotidien Hebdomadaire Mensuel Annuel Actuel
  Haut: Bas: Moyen:
Température: 17.9 °C 0.0 °C 11.3 °C
Pt de rosée: 12.0 °C 5.0 °C 8 °C
Humidité: 98 % 0 % 79 %
Vitesse du vent: 20.6 km/h 0.0 km/h 5.1 km/h
Rafales: 23.0 km/h - -
Vent:- - WNW
Pression: 1026.0 hPa 1018.2 hPa -
Précipitation: 0.0 mm    
Historical Graphs
 
 
Données statistiques pour Octobre 6, 2017
Heure Température Point de rosée Pression Vent Vitesse du vent Refales Humidité Pluie (taux horaire)
00:02 9.3 °C 8.0 °C 1018.8 hPa NNW 4.0 km/h 7.9 km/h 92 % 0.0 mm
00:07 9.3 °C 8.0 °C 1018.8 hPa North 4.0 km/h 6.9 km/h 92 % 0.0 mm
00:12 10.8 °C 9.0 °C 1018.8 hPa North 4.7 km/h 5.8 km/h 90 % 0.0 mm
00:17 11.2 °C 9.0 °C 1018.8 hPa NNW 5.8 km/h 7.9 km/h 86 % 0.0 mm
00:22 11.2 °C 9.0 °C 1018.8 hPa Calm   7.9 km/h 85 % 0.0 mm
00:27 11.2 °C 9.0 °C 1018.8 hPa West 5.5 km/h 7.9 km/h 85 % 0.0 mm
00:32 11.2 °C 9.0 °C 1018.2 hPa Calm   5.8 km/h 85 % 0.0 mm
00:37 11.2 °C 9.0 °C 1018.2 hPa Calm   5.5 km/h 84 % 0.0 mm
00:42 11.1 °C 9.0 °C 1018.2 hPa Calm   5.0 km/h 84 % 0.0 mm
00:47 11.0 °C 9.0 °C 1018.8 hPa Calm     84 % 0.0 mm
00:52 10.9 °C 9.0 °C 1018.8 hPa NNW 6.4 km/h 6.4 km/h 84 % 0.0 mm
00:57 10.8 °C 8.0 °C 1018.8 hPa Calm   6.4 km/h 84 % 0.0 mm
01:02 10.6 °C 9.0 °C 1018.2 hPa WNW 2.1 km/h 6.4 km/h 85 % 0.0 mm
01:07 10.5 °C 8.0 °C 1018.2 hPa West 2.1 km/h 6.4 km/h 84 % 0.0 mm
01:12 10.2 °C 8.0 °C 1018.2 hPa Calm   4.0 km/h 84 % 0.0 mm
01:17 10.2 °C 8.0 °C 1018.8 hPa Calm   4.0 km/h 84 % 0.0 mm
01:22 10.2 °C 8.0 °C 1018.8 hPa Calm     84 % 0.0 mm
01:27 9.4 °C 7.0 °C 1018.8 hPa Calm     85 % 0.0 mm
01:32 9.0 °C 7.0 °C 1018.8 hPa Calm     85 % 0.0 mm
01:37 9.0 °C 7.0 °C 1018.8 hPa Calm     85 % 0.0 mm
01:43 8.7 °C 7.0 °C 1018.8 hPa Calm     87 % 0.0 mm
01:48 8.7 °C 7.0 °C 1018.8 hPa Calm     87 % 0.0 mm
01:53 8.7 °C 7.0 °C 1018.8 hPa Calm     87 % 0.0 mm
01:58 8.6 °C 7.0 °C 1018.8 hPa Calm   5.5 km/h 89 % 0.0 mm
02:03 8.6 °C 7.0 °C 1018.8 hPa WNW 3.5 km/h 5.5 km/h 89 % 0.0 mm
02:08 8.6 °C 7.0 °C 1018.8 hPa WSW 6.4 km/h 6.9 km/h 89 % 0.0 mm
02:13 8.7 °C 8.0 °C 1018.8 hPa Calm   6.9 km/h 92 % 0.0 mm
02:18 8.8 °C 8.0 °C 1018.8 hPa West 5.8 km/h 6.1 km/h 92 % 0.0 mm
02:23 8.8 °C 8.0 °C 1018.8 hPa West 6.1 km/h 6.1 km/h 92 % 0.0 mm
02:28 8.8 °C 8.0 °C 1018.8 hPa West 4.3 km/h 6.1 km/h 93 % 0.0 mm
02:33 8.8 °C 8.0 °C 1018.8 hPa West 4.3 km/h 5.8 km/h 93 % 0.0 mm
02:38 8.8 °C 8.0 °C 1018.8 hPa West 5.8 km/h 6.4 km/h 93 % 0.0 mm
02:43 8.8 °C 8.0 °C 1018.8 hPa West 6.4 km/h 6.4 km/h 93 % 0.0 mm
02:48 8.8 °C 8.0 °C 1018.8 hPa West 5.5 km/h 8.7 km/h 93 % 0.0 mm
02:54 8.6 °C 8.0 °C 1018.8 hPa WSW 8.7 km/h 8.7 km/h 93 % 0.0 mm
02:59 8.5 °C 8.0 °C 1018.8 hPa West 6.1 km/h 8.7 km/h 93 % 0.0 mm
03:04 0.0 °C 8.0 °C 1018.8 hPa West 5.8 km/h 8.5 km/h 0 % 0.0 mm
03:09 0.0 °C 8.0 °C 1018.8 hPa Calm   5.8 km/h 0 % 0.0 mm
03:14 0.0 °C 8.0 °C 1018.8 hPa Calm   1.4 km/h 0 % 0.0 mm
03:19 8.3 °C 8.0 °C 1018.8 hPa Calm   1.4 km/h 93 % 0.0 mm
03:22 8.2 °C 7.0 °C 1018.8 hPa Calm     93 % 0.0 mm
03:27 8.2 °C 7.0 °C 1018.8 hPa Calm     93 % 0.0 mm
03:32 8.1 °C 7.0 °C 1018.8 hPa West 4.3 km/h 6.4 km/h 94 % 0.0 mm
03:42 8.2 °C 8.0 °C 1018.8 hPa Calm   7.9 km/h 95 % 0.0 mm
03:52 8.2 °C 8.0 °C 1018.8 hPa West 6.1 km/h 9.7 km/h 95 % 0.0 mm
03:57 8.3 °C 8.0 °C 1018.8 hPa Calm   9.7 km/h 96 % 0.0 mm
04:02 8.3 °C 8.0 °C 1018.8 hPa West 6.1 km/h 6.1 km/h 96 % 0.0 mm
04:07 8.6 °C 9.0 °C 1018.8 hPa West 7.9 km/h 9.7 km/h 97 % 0.0 mm
04:12 8.7 °C 9.0 °C 1018.8 hPa SW 8.7 km/h 9.7 km/h 97 % 0.0 mm
04:17 8.9 °C 9.0 °C 1018.8 hPa West 4.7 km/h 8.7 km/h 97 % 0.0 mm
04:23 9.0 °C 9.0 °C 1018.8 hPa WNW 7.6 km/h 8.7 km/h 97 % 0.0 mm
04:28 9.1 °C 9.0 °C 1018.8 hPa West 4.0 km/h 7.9 km/h 97 % 0.0 mm
04:33 9.1 °C 9.0 °C 1018.8 hPa West 8.7 km/h 8.7 km/h 96 % 0.0 mm
04:38 9.1 °C 9.0 °C 1018.8 hPa West 4.7 km/h 8.7 km/h 96 % 0.0 mm
04:43 9.0 °C 9.0 °C 1018.8 hPa WNW 5.8 km/h 6.9 km/h 96 % 0.0 mm
04:48 8.9 °C 9.0 °C 1018.8 hPa West 7.2 km/h 7.2 km/h 96 % 0.0 mm
04:53 9.0 °C 9.0 °C 1018.8 hPa WSW 4.7 km/h 7.2 km/h 96 % 0.0 mm
05:03 9.0 °C 9.0 °C 1018.8 hPa Calm   5.8 km/h 96 % 0.0 mm
05:08 9.0 °C 9.0 °C 1018.8 hPa WNW 5.5 km/h 5.8 km/h 96 % 0.0 mm
05:13 9.0 °C 9.0 °C 1018.8 hPa West 2.1 km/h 5.8 km/h 96 % 0.0 mm
05:18 9.0 °C 9.0 °C 1018.8 hPa Calm   2.1 km/h 97 % 0.0 mm
05:23 9.0 °C 9.0 °C 1018.8 hPa WSW 5.8 km/h 9.7 km/h 97 % 0.0 mm
05:26 9.0 °C 9.0 °C 1018.8 hPa WSW 6.4 km/h 9.7 km/h 97 % 0.0 mm
05:27 9.0 °C 9.0 °C 1018.8 hPa Calm   9.7 km/h 96 % 0.0 mm
05:32 9.0 °C 9.0 °C 1018.8 hPa WSW 5.5 km/h 6.4 km/h 96 % 0.0 mm
05:38 9.0 °C 9.0 °C 1018.8 hPa Calm   7.6 km/h 96 % 0.0 mm
05:43 9.1 °C 9.0 °C 1018.8 hPa Calm   8.7 km/h 97 % 0.0 mm
05:48 9.3 °C 9.0 °C 1019.9 hPa WSW 6.1 km/h 8.7 km/h 98 % 0.0 mm
05:53 9.3 °C 9.0 °C 1019.9 hPa Calm   8.7 km/h 98 % 0.0 mm
05:58 9.5 °C 10.0 °C 1019.9 hPa West 8.7 km/h 8.7 km/h 98 % 0.0 mm
06:03 9.6 °C 10.0 °C 1018.8 hPa WSW 5.5 km/h 10.5 km/h 98 % 0.0 mm
06:08 9.7 °C 10.0 °C 1018.8 hPa West 5.5 km/h 10.5 km/h 98 % 0.0 mm
06:13 9.8 °C 10.0 °C 1018.8 hPa Calm   9.0 km/h 98 % 0.0 mm
06:18 9.8 °C 10.0 °C 1018.8 hPa WSW 9.0 km/h 9.0 km/h 98 % 0.0 mm
06:28 9.8 °C 10.0 °C 1018.8 hPa West 2.1 km/h 9.0 km/h 98 % 0.0 mm
06:33 9.7 °C 10.0 °C 1018.8 hPa WSW 5.5 km/h 9.0 km/h 98 % 0.0 mm
06:38 9.7 °C 10.0 °C 1018.8 hPa Calm   9.0 km/h 98 % 0.0 mm
06:43 9.8 °C 10.0 °C 1018.8 hPa West 6.4 km/h 8.7 km/h 98 % 0.0 mm
06:48 9.8 °C 10.0 °C 1019.9 hPa Calm   7.6 km/h 98 % 0.0 mm
06:53 9.8 °C 10.0 °C 1019.9 hPa West 3.5 km/h 9.0 km/h 98 % 0.0 mm
06:58 9.6 °C 10.0 °C 1019.9 hPa West 4.7 km/h 9.0 km/h 98 % 0.0 mm
07:03 9.6 °C 10.0 °C 1019.9 hPa WSW 3.5 km/h 9.0 km/h 98 % 0.0 mm
07:08 9.6 °C 10.0 °C 1019.9 hPa West 4.7 km/h 9.3 km/h 98 % 0.0 mm
07:13 9.7 °C 10.0 °C 1019.9 hPa Calm   9.7 km/h 98 % 0.0 mm
07:18 9.7 °C 10.0 °C 1019.9 hPa Calm   9.7 km/h 98 % 0.0 mm
07:23 9.7 °C 10.0 °C 1019.9 hPa Calm   7.9 km/h 98 % 0.0 mm
07:29 9.4 °C 9.0 °C 1019.9 hPa West 6.1 km/h 7.6 km/h 97 % 0.0 mm
07:34 9.4 °C 9.0 °C 1019.9 hPa Calm   6.1 km/h 97 % 0.0 mm
07:44 9.3 °C 9.0 °C 1019.9 hPa WSW 7.9 km/h 7.9 km/h 98 % 0.0 mm
07:54 9.2 °C 9.0 °C 1020.9 hPa West 4.0 km/h 8.7 km/h 98 % 0.0 mm
07:59 9.2 °C 9.0 °C 1020.9 hPa Calm   7.9 km/h 98 % 0.0 mm
08:04 9.2 °C 9.0 °C 1019.9 hPa West 3.5 km/h 5.5 km/h 98 % 0.0 mm
08:09 9.1 °C 9.0 °C 1019.9 hPa West 4.0 km/h 5.5 km/h 98 % 0.0 mm
08:14 9.1 °C 9.0 °C 1019.9 hPa West 6.4 km/h 6.4 km/h 98 % 0.0 mm
08:19 9.1 °C 9.0 °C 1020.9 hPa West 6.1 km/h 6.4 km/h 98 % 0.0 mm
08:24 9.1 °C 9.0 °C 1020.9 hPa West 8.7 km/h 8.7 km/h 98 % 0.0 mm
08:29 9.1 °C 9.0 °C 1020.9 hPa West 4.3 km/h 8.7 km/h 98 % 0.0 mm
08:34 9.1 °C 9.0 °C 1020.9 hPa West 7.9 km/h 8.7 km/h 98 % 0.0 mm
08:39 9.4 °C 9.0 °C 1020.9 hPa West 11.6 km/h 11.6 km/h 98 % 0.0 mm
08:44 9.6 °C 10.0 °C 1020.9 hPa West 6.1 km/h 11.6 km/h 98 % 0.0 mm
08:49 9.6 °C 10.0 °C 1020.9 hPa West 6.9 km/h 9.7 km/h 98 % 0.0 mm
08:54 9.8 °C 10.0 °C 1020.9 hPa WSW 6.9 km/h 9.7 km/h 98 % 0.0 mm
08:59 10.1 °C 10.0 °C 1020.9 hPa WSW 6.4 km/h 9.7 km/h 98 % 0.0 mm
09:05 10.3 °C 10.0 °C 1020.9 hPa West 5.5 km/h 8.7 km/h 98 % 0.0 mm
09:10 10.4 °C 10.0 °C 1020.9 hPa West 9.0 km/h 10.1 km/h 98 % 0.0 mm
09:15 10.4 °C 10.0 °C 1020.9 hPa West 10.1 km/h 12.2 km/h 98 % 0.0 mm
09:25 10.9 °C 11.0 °C 1020.9 hPa West 4.7 km/h 10.1 km/h 97 % 0.0 mm
09:30 11.5 °C 11.0 °C 1020.9 hPa WNW 4.7 km/h 4.7 km/h 97 % 0.0 mm
09:35 11.6 °C 11.0 °C 1020.9 hPa East 8.7 km/h 10.5 km/h 97 % 0.0 mm
09:40 12.3 °C 12.0 °C 1020.9 hPa WNW 3.2 km/h 10.5 km/h 95 % 0.0 mm
09:45 12.4 °C 12.0 °C 1020.9 hPa WNW 8.7 km/h 14.8 km/h 94 % 0.0 mm
09:50 12.8 °C 12.0 °C 1021.9 hPa WNW 10.5 km/h 14.8 km/h 93 % 0.0 mm
09:55 13.0 °C 12.0 °C 1021.9 hPa NNW 4.3 km/h 10.5 km/h 90 % 0.0 mm
10:00 13.3 °C 11.0 °C 1021.9 hPa NW 7.9 km/h 15.4 km/h 86 % 0.0 mm
10:05 13.3 °C 11.0 °C 1021.9 hPa WNW 6.1 km/h 15.4 km/h 85 % 0.0 mm
10:10 13.6 °C 11.0 °C 1021.9 hPa North 20.6 km/h 20.6 km/h 83 % 0.0 mm
10:15 13.6 °C 11.0 °C 1021.9 hPa West 4.7 km/h 20.6 km/h 81 % 0.0 mm
10:20 13.7 °C 11.0 °C 1021.9 hPa NNW 9.0 km/h 20.6 km/h 80 % 0.0 mm
10:25 13.8 °C 10.0 °C 1021.9 hPa WNW 1.4 km/h 16.6 km/h 79 % 0.0 mm
10:30 13.9 °C 10.0 °C 1021.9 hPa NW 9.7 km/h 13.7 km/h 75 % 0.0 mm
10:35 13.9 °C 10.0 °C 1021.9 hPa NW 9.7 km/h 17.2 km/h 75 % 0.0 mm
10:40 14.2 °C 10.0 °C 1021.9 hPa WNW 7.6 km/h 17.2 km/h 76 % 0.0 mm
10:45 14.2 °C 10.0 °C 1021.9 hPa NNW 5.5 km/h 14.8 km/h 76 % 0.0 mm
10:50 14.1 °C 9.0 °C 1021.9 hPa NNW 5.8 km/h 15.1 km/h 71 % 0.0 mm
10:55 14.0 °C 9.0 °C 1021.9 hPa North 9.7 km/h 17.7 km/h 71 % 0.0 mm
11:00 14.4 °C 10.0 °C 1022.9 hPa NNW 15.4 km/h 17.7 km/h 72 % 0.0 mm
11:10 14.2 °C 9.0 °C 1022.9 hPa NNW 5.5 km/h 15.4 km/h 70 % 0.0 mm
11:15 14.2 °C 9.0 °C 1022.9 hPa NNW 9.7 km/h 20.1 km/h 70 % 0.0 mm
11:20 14.9 °C 9.0 °C 1022.9 hPa NNW 9.0 km/h 20.1 km/h 69 % 0.0 mm
11:25 14.9 °C 9.0 °C 1022.9 hPa North 7.9 km/h 16.9 km/h 69 % 0.0 mm
11:30 14.6 °C 9.0 °C 1022.9 hPa North 11.9 km/h 14.0 km/h 66 % 0.0 mm
11:36 14.6 °C 9.0 °C 1022.9 hPa WNW 6.1 km/h 16.3 km/h 66 % 0.0 mm
11:41 14.9 °C 9.0 °C 1022.9 hPa West 9.0 km/h 16.9 km/h 64 % 0.0 mm
11:46 14.5 °C 8.0 °C 1022.9 hPa West 9.0 km/h 16.9 km/h 64 % 0.0 mm
11:51 14.6 °C 9.0 °C 1022.9 hPa NNW 6.9 km/h 16.6 km/h 66 % 0.0 mm
11:56 14.6 °C 9.0 °C 1022.9 hPa NNE 9.0 km/h 17.2 km/h 66 % 0.0 mm
12:01 14.4 °C 9.0 °C 1022.9 hPa NNW 7.9 km/h 17.2 km/h 67 % 0.0 mm
12:06 14.4 °C 9.0 °C 1022.9 hPa WNW 9.7 km/h 16.6 km/h 69 % 0.0 mm
12:11 15.0 °C 9.0 °C 1022.9 hPa West 9.0 km/h 16.6 km/h 66 % 0.0 mm
12:16 15.4 °C 9.0 °C 1022.9 hPa North 6.9 km/h 15.4 km/h 65 % 0.0 mm
12:21 15.6 °C 9.0 °C 1022.9 hPa NE 5.5 km/h 15.4 km/h 65 % 0.0 mm
12:26 15.9 °C 9.0 °C 1022.9 hPa NNW 15.1 km/h 15.1 km/h 64 % 0.0 mm
12:31 15.3 °C 9.0 °C 1022.9 hPa North 13.7 km/h 16.6 km/h 64 % 0.0 mm
12:36 15.2 °C 9.0 °C 1022.9 hPa WNW 11.6 km/h 16.6 km/h 63 % 0.0 mm
12:46 15.2 °C 9.0 °C 1023.9 hPa NNW 9.0 km/h 15.4 km/h 63 % 0.0 mm
12:51 15.2 °C 9.0 °C 1023.9 hPa NNW 9.3 km/h 15.8 km/h 63 % 0.0 mm
13:01 14.9 °C 9.0 °C 1022.9 hPa North 12.6 km/h 21.2 km/h 65 % 0.0 mm
13:06 15.4 °C 9.0 °C 1022.9 hPa NNW 8.7 km/h 12.6 km/h 66 % 0.0 mm
13:11 15.9 °C 9.0 °C 1022.9 hPa NW 9.7 km/h 19.1 km/h 63 % 0.0 mm
13:16 15.3 °C 8.0 °C 1023.9 hPa NNW 9.0 km/h 19.1 km/h 59 % 0.0 mm
13:17 15.3 °C 8.0 °C 1023.9 hPa NNW 9.3 km/h 19.1 km/h 59 % 0.0 mm
13:22 15.6 °C 9.0 °C 1023.9 hPa NNW 12.6 km/h 19.1 km/h 62 % 0.0 mm
13:32 15.4 °C 8.0 °C 1023.9 hPa North 17.2 km/h 23.0 km/h 60 % 0.0 mm
13:37 14.7 °C 9.0 °C 1023.9 hPa NNW 10.1 km/h 23.0 km/h 65 % 0.0 mm
13:42 14.8 °C 9.0 °C 1023.9 hPa North 10.1 km/h 19.5 km/h 67 % 0.0 mm
13:43 14.8 °C 9.0 °C 1023.9 hPa North 10.1 km/h 19.5 km/h 67 % 0.0 mm
13:48 15.5 °C 9.0 °C 1022.9 hPa WNW 10.5 km/h 17.7 km/h 63 % 0.0 mm
13:53 15.5 °C 9.0 °C 1022.9 hPa NNW 6.4 km/h 17.7 km/h 63 % 0.0 mm
13:58 15.5 °C 9.0 °C 1022.9 hPa North 8.7 km/h 17.7 km/h 63 % 0.0 mm
14:03 16.6 °C 8.0 °C 1023.9 hPa North 12.6 km/h 14.0 km/h 57 % 0.0 mm
14:08 15.8 °C 8.0 °C 1023.9 hPa NNW 13.7 km/h 21.9 km/h 58 % 0.0 mm
14:13 15.8 °C 8.0 °C 1023.9 hPa NE 2.6 km/h 21.9 km/h 58 % 0.0 mm
14:18 16.5 °C 9.0 °C 1023.9 hPa NNW 7.6 km/h 14.8 km/h 61 % 0.0 mm
14:23 16.2 °C 8.0 °C 1023.9 hPa NNW 6.9 km/h 21.2 km/h 56 % 0.0 mm
14:28 15.7 °C 8.0 °C 1023.9 hPa North 17.7 km/h 21.2 km/h 58 % 0.0 mm
14:33 16.1 °C 8.0 °C 1023.9 hPa NNW 12.6 km/h 17.7 km/h 57 % 0.0 mm
14:38 16.1 °C 8.0 °C 1023.9 hPa North 8.7 km/h 17.7 km/h 57 % 0.0 mm
14:43 17.1 °C 8.0 °C 1023.9 hPa West 6.4 km/h 14.0 km/h 56 % 0.0 mm
14:48 16.0 °C 7.0 °C 1024.9 hPa NNW 10.1 km/h 14.0 km/h 55 % 0.0 mm
14:53 16.0 °C 7.0 °C 1024.9 hPa North 7.9 km/h 10.1 km/h 55 % 0.0 mm
14:58 16.5 °C 9.0 °C 1024.9 hPa NW 10.1 km/h 13.7 km/h 59 % 0.0 mm
15:03 16.3 °C 8.0 °C 1023.9 hPa North 11.1 km/h 19.1 km/h 57 % 0.0 mm
15:08 15.7 °C 7.0 °C 1023.9 hPa NNE 4.7 km/h 19.1 km/h 57 % 0.0 mm
15:11 15.7 °C 7.0 °C 1023.9 hPa West 12.2 km/h 14.0 km/h 57 % 0.0 mm
15:17 15.7 °C 7.0 °C 1024.9 hPa North 9.3 km/h 13.0 km/h 57 % 0.0 mm
15:22 15.7 °C 7.0 °C 1024.9 hPa North 11.9 km/h 13.0 km/h 57 % 0.0 mm
15:27 16.8 °C 8.0 °C 1024.9 hPa NNW 11.9 km/h 12.6 km/h 54 % 0.0 mm
15:37 16.4 °C 7.0 °C 1023.9 hPa WNW 9.0 km/h 20.1 km/h 53 % 0.0 mm
15:42 16.0 °C 6.0 °C 1023.9 hPa WNW 6.4 km/h 10.5 km/h 52 % 0.0 mm
15:47 16.0 °C 6.0 °C 1024.9 hPa North 3.5 km/h 10.5 km/h 52 % 0.0 mm
15:52 16.0 °C 6.0 °C 1024.9 hPa NNE 12.6 km/h 13.7 km/h 52 % 0.0 mm
15:57 17.7 °C 8.0 °C 1024.9 hPa North 3.5 km/h 15.4 km/h 52 % 0.0 mm
16:02 17.9 °C 8.0 °C 1024.9 hPa NNW 10.1 km/h 15.4 km/h 51 % 0.0 mm
16:12 17.8 °C 8.0 °C 1024.9 hPa NNW 8.7 km/h 16.3 km/h 52 % 0.0 mm
16:17 17.8 °C 8.0 °C 1024.9 hPa North 6.1 km/h 16.3 km/h 52 % 0.0 mm
16:22 15.4 °C 7.0 °C 1024.9 hPa North 15.4 km/h 15.4 km/h 56 % 0.0 mm
16:27 15.9 °C 7.0 °C 1024.9 hPa North 13.0 km/h 15.4 km/h 56 % 0.0 mm
16:32 15.5 °C 7.0 °C 1024.9 hPa WNW 11.6 km/h 15.4 km/h 55 % 0.0 mm
16:37 15.2 °C 6.0 °C 1024.9 hPa NNW 8.7 km/h 15.8 km/h 55 % 0.0 mm
16:42 15.2 °C 6.0 °C 1024.9 hPa NNW 8.7 km/h 15.8 km/h 55 % 0.0 mm
16:47 15.4 °C 7.0 °C 1024.9 hPa NNW 9.3 km/h 14.0 km/h 56 % 0.0 mm
16:52 15.0 °C 6.0 °C 1024.9 hPa North 9.3 km/h 11.9 km/h 54 % 0.0 mm
16:57 14.9 °C 6.0 °C 1024.9 hPa North 9.3 km/h 10.5 km/h 55 % 0.0 mm
17:07 15.3 °C 7.0 °C 1024.9 hPa North 9.3 km/h 9.3 km/h 58 % 0.0 mm
17:12 15.5 °C 7.0 °C 1024.9 hPa North 9.3 km/h 9.3 km/h 55 % 0.0 mm
17:17 15.2 °C 7.0 °C 1024.9 hPa North 9.3 km/h 9.3 km/h 56 % 0.0 mm
17:22 15.1 °C 6.0 °C 1024.9 hPa North 9.3 km/h 9.3 km/h 55 % 0.0 mm
17:27 15.2 °C 6.0 °C 1024.9 hPa North 9.3 km/h 9.3 km/h 55 % 0.0 mm
17:28 15.1 °C 6.0 °C 1024.9 hPa North 9.3 km/h 9.3 km/h 55 % 0.0 mm
17:38 14.5 °C 6.0 °C 1024.9 hPa North 9.3 km/h 9.3 km/h 56 % 0.0 mm
17:43 14.2 °C 6.0 °C 1024.9 hPa North 9.3 km/h 9.3 km/h 58 % 0.0 mm
17:53 13.7 °C 6.0 °C 1024.9 hPa North 9.3 km/h 9.3 km/h 59 % 0.0 mm
17:58 13.5 °C 6.0 °C 1024.9 hPa North 9.3 km/h 9.3 km/h 61 % 0.0 mm
18:03 13.7 °C 7.0 °C 1024.9 hPa North 9.3 km/h 9.3 km/h 62 % 0.0 mm
18:08 14.0 °C 7.0 °C 1024.9 hPa North 9.3 km/h 9.3 km/h 62 % 0.0 mm
18:18 14.2 °C 8.0 °C 1023.9 hPa North 9.3 km/h 9.3 km/h 63 % 0.0 mm
18:23 14.3 °C 7.0 °C 1023.9 hPa North 9.3 km/h 9.3 km/h 62 % 0.0 mm
18:28 14.3 °C 7.0 °C 1023.9 hPa North 9.3 km/h 9.3 km/h 62 % 0.0 mm
18:33 13.6 °C 7.0 °C 1024.9 hPa North 9.3 km/h 9.3 km/h 62 % 0.0 mm
18:38 13.4 °C 7.0 °C 1024.9 hPa North 9.3 km/h 9.3 km/h 63 % 0.0 mm
18:48 13.2 °C 7.0 °C 1024.9 hPa North 9.3 km/h 9.3 km/h 64 % 0.0 mm
18:53 13.0 °C 7.0 °C 1024.9 hPa North 9.3 km/h 9.3 km/h 64 % 0.0 mm
18:59 12.7 °C 7.0 °C 1024.9 hPa Calm     65 % 0.0 mm
19:04 12.5 °C 7.0 °C 1024.9 hPa Calm     66 % 0.0 mm
19:09 12.3 °C 6.0 °C 1024.9 hPa Calm     66 % 0.0 mm
19:14 11.9 °C 6.0 °C 1024.9 hPa Calm     67 % 0.0 mm
19:19 11.7 °C 6.0 °C 1024.9 hPa Calm     68 % 0.0 mm
19:24 11.5 °C 6.0 °C 1024.9 hPa Calm     68 % 0.0 mm
19:29 11.4 °C 6.0 °C 1024.9 hPa Calm     69 % 0.0 mm
19:34 11.1 °C 6.0 °C 1024.9 hPa Calm     69 % 0.0 mm
19:39 10.8 °C 6.0 °C 1024.9 hPa Calm     70 % 0.0 mm
19:44 10.3 °C 6.0 °C 1024.9 hPa Calm     71 % 0.0 mm
19:49 10.1 °C 5.0 °C 1024.9 hPa Calm     71 % 0.0 mm
19:54 9.8 °C 5.0 °C 1024.9 hPa Calm     72 % 0.0 mm
19:59 9.5 °C 5.0 °C 1024.9 hPa Calm     73 % 0.0 mm
20:04 9.4 °C 6.0 °C 1024.9 hPa Calm     75 % 0.0 mm
20:09 9.3 °C 6.0 °C 1024.9 hPa Calm     75 % 0.0 mm
20:14 9.2 °C 6.0 °C 1024.9 hPa Calm     75 % 0.0 mm
20:19 9.1 °C 5.0 °C 1024.9 hPa Calm     76 % 0.0 mm
20:24 9.0 °C 5.0 °C 1024.9 hPa Calm     76 % 0.0 mm
20:29 9.0 °C 6.0 °C 1024.9 hPa Calm     77 % 0.0 mm
20:30 9.0 °C 6.0 °C 1024.9 hPa Calm     77 % 0.0 mm
20:40 8.9 °C 6.0 °C 1024.9 hPa Calm     79 % 0.0 mm
20:45 8.9 °C 6.0 °C 1026.0 hPa Calm     80 % 0.0 mm
20:50 8.9 °C 6.0 °C 1026.0 hPa Calm     80 % 0.0 mm
20:55 8.8 °C 6.0 °C 1026.0 hPa Calm     81 % 0.0 mm
21:00 8.7 °C 6.0 °C 1026.0 hPa Calm     82 % 0.0 mm
21:05 8.7 °C 6.0 °C 1026.0 hPa Calm     82 % 0.0 mm
21:10 8.6 °C 6.0 °C 1026.0 hPa Calm     82 % 0.0 mm
21:15 8.5 °C 6.0 °C 1026.0 hPa Calm     83 % 0.0 mm
21:20 8.5 °C 6.0 °C 1026.0 hPa Calm     84 % 0.0 mm
21:25 8.5 °C 6.0 °C 1026.0 hPa Calm     84 % 0.0 mm
21:30 8.5 °C 6.0 °C 1026.0 hPa Calm     84 % 0.0 mm
21:35 8.5 °C 7.0 °C 1026.0 hPa Calm     85 % 0.0 mm
21:40 8.4 °C 6.0 °C 1026.0 hPa Calm     85 % 0.0 mm
21:43 8.4 °C 6.0 °C 1026.0 hPa Calm     85 % 0.0 mm
21:48 8.3 °C 6.0 °C 1026.0 hPa Calm     85 % 0.0 mm
21:53 8.2 °C 6.0 °C 1026.0 hPa Calm     85 % 0.0 mm
21:59 8.2 °C 6.0 °C 1026.0 hPa Calm     85 % 0.0 mm
22:04 8.1 °C 6.0 °C 1026.0 hPa Calm     86 % 0.0 mm
22:09 8.0 °C 6.0 °C 1026.0 hPa Calm     86 % 0.0 mm
22:19 7.7 °C 6.0 °C 1026.0 hPa Calm     86 % 0.0 mm
22:24 7.6 °C 6.0 °C 1026.0 hPa Calm     86 % 0.0 mm
22:29 7.4 °C 6.0 °C 1026.0 hPa Calm     87 % 0.0 mm
22:34 7.4 °C 6.0 °C 1026.0 hPa Calm     87 % 0.0 mm
22:39 7.5 °C 6.0 °C 1026.0 hPa Calm     88 % 0.0 mm
22:44 7.5 °C 6.0 °C 1026.0 hPa Calm     88 % 0.0 mm
22:49 7.5 °C 6.0 °C 1026.0 hPa Calm     88 % 0.0 mm
22:54 7.7 °C 6.0 °C 1026.0 hPa Calm     89 % 0.0 mm
23:00 7.7 °C 6.0 °C 1026.0 hPa Calm     90 % 0.0 mm
23:05 7.7 °C 6.0 °C 1026.0 hPa Calm     89 % 0.0 mm
23:10 7.5 °C 6.0 °C 1026.0 hPa Calm     89 % 0.0 mm
23:15 7.3 °C 6.0 °C 1026.0 hPa Calm     88 % 0.0 mm
23:20 7.2 °C 6.0 °C 1026.0 hPa Calm     89 % 0.0 mm
23:25 7.3 °C 6.0 °C 1026.0 hPa Calm     90 % 0.0 mm
23:30 7.3 °C 6.0 °C 1026.0 hPa Calm     90 % 0.0 mm
23:35 7.1 °C 6.0 °C 1026.0 hPa Calm     90 % 0.0 mm
23:40 7.1 °C 6.0 °C 1026.0 hPa Calm     90 % 0.0 mm
23:46 7.1 °C 6.0 °C 1026.0 hPa Calm   3.5 km/h 90 % 0.0 mm
23:51 7.1 °C 6.0 °C 1026.0 hPa Calm   3.5 km/h 90 % 0.0 mm
23:56 7.1 °C 6.0 °C 1026.0 hPa West 4.7 km/h 6.9 km/h 90 % 0.0 mm
Le Gheer Warneton
Courtoisie de Weather Underground - 2.25 mb

Mise a jour : 17-12-17 03:09:23
Généré par Cumulus 1.9.4 (1099)